createdAt,value
2019-03-25T00:00:39.502Z,10.53
2019-03-25T00:03:07.393Z,8.60
2019-03-25T00:05:35.572Z,9.47
2019-03-25T00:08:03.548Z,14.97
2019-03-25T00:10:31.431Z,12.97
2019-03-25T00:12:59.303Z,9.03
2019-03-25T00:15:27.209Z,12.03
2019-03-25T00:17:55.082Z,13.67
2019-03-25T00:20:22.997Z,9.47
2019-03-25T00:22:50.898Z,7.43
2019-03-25T00:25:18.779Z,15.13
2019-03-25T00:27:46.648Z,12.47
2019-03-25T00:30:14.661Z,11.27
2019-03-25T00:32:42.538Z,11.67
2019-03-25T00:35:10.563Z,8.37
2019-03-25T00:37:38.471Z,14.13
2019-03-25T00:40:06.463Z,14.87
2019-03-25T00:42:34.368Z,11.43
2019-03-25T00:45:02.232Z,13.10
2019-03-25T00:47:30.144Z,7.00
2019-03-25T00:49:58.010Z,10.10
2019-03-25T00:52:25.910Z,8.67
2019-03-25T00:54:53.775Z,13.93
2019-03-25T00:57:21.695Z,12.63
2019-03-25T00:59:54.574Z,11.03
2019-03-25T01:02:22.477Z,11.40
2019-03-25T01:04:50.344Z,8.93
2019-03-25T01:07:18.232Z,7.80
2019-03-25T01:09:46.141Z,15.23
2019-03-25T01:12:13.977Z,11.43
2019-03-25T01:14:41.837Z,14.30
2019-03-25T01:17:09.782Z,11.27
2019-03-25T01:19:37.662Z,11.50
2019-03-25T01:22:05.551Z,11.07
2019-03-25T01:24:33.401Z,11.80
2019-03-25T01:27:01.294Z,13.57
2019-03-25T01:29:29.177Z,10.23
2019-03-25T01:31:57.018Z,11.47
2019-03-25T01:34:24.901Z,11.33
2019-03-25T01:36:52.788Z,14.37
2019-03-25T01:39:20.664Z,12.77
2019-03-25T01:41:53.139Z,13.87
2019-03-25T01:44:21.048Z,12.00
2019-03-25T01:46:48.934Z,12.80
2019-03-25T01:49:16.820Z,10.07
2019-03-25T01:51:44.706Z,19.13
2019-03-25T01:54:12.614Z,13.10
2019-03-25T01:56:40.492Z,13.83
2019-03-25T01:59:08.413Z,13.47
2019-03-25T02:01:36.275Z,14.90
2019-03-25T02:04:04.176Z,17.60
2019-03-25T02:06:32.036Z,10.97
2019-03-25T02:08:59.923Z,10.43
2019-03-25T02:11:27.771Z,14.80
2019-03-25T02:13:55.657Z,16.20
2019-03-25T02:16:23.530Z,11.53
2019-03-25T02:18:51.476Z,9.23
2019-03-25T02:21:19.375Z,11.73
2019-03-25T02:23:47.267Z,16.50
2019-03-25T02:26:15.134Z,12.90
2019-03-25T02:28:43.061Z,10.83
2019-03-25T02:31:10.924Z,13.47
2019-03-25T02:33:38.796Z,15.43
2019-03-25T02:36:06.700Z,13.17
2019-03-25T02:38:34.642Z,12.80
2019-03-25T02:41:02.646Z,15.07
2019-03-25T02:43:30.535Z,12.57
2019-03-25T02:45:58.427Z,11.07
2019-03-25T02:48:26.314Z,15.70
2019-03-25T02:50:54.208Z,12.97
2019-03-25T02:53:22.124Z,12.07
2019-03-25T02:55:50.007Z,9.07
2019-03-25T02:58:17.936Z,10.37
2019-03-25T03:00:45.783Z,14.00
2019-03-25T03:03:13.714Z,12.40
2019-03-25T03:05:41.593Z,11.67
2019-03-25T03:08:09.460Z,13.97
2019-03-25T03:10:37.355Z,14.13
2019-03-25T03:13:05.253Z,15.47
2019-03-25T03:15:33.165Z,11.17
2019-03-25T03:18:01.010Z,13.80
2019-03-25T03:20:28.906Z,13.57
2019-03-25T03:22:56.785Z,15.87
2019-03-25T03:25:24.683Z,13.20
2019-03-25T03:27:53.589Z,16.10
2019-03-25T03:30:21.486Z,14.30
2019-03-25T03:32:49.349Z,12.97
2019-03-25T03:35:17.265Z,13.93
2019-03-25T03:37:45.149Z,11.80
2019-03-25T03:40:13.066Z,11.10
2019-03-25T03:42:40.917Z,12.43
2019-03-25T03:45:08.811Z,12.13
2019-03-25T03:47:36.719Z,12.57
2019-03-25T03:50:04.634Z,10.00
2019-03-25T03:52:33.320Z,9.23
2019-03-25T03:55:01.239Z,13.80
2019-03-25T03:57:29.445Z,10.60
2019-03-25T03:59:57.358Z,16.73
2019-03-25T04:02:25.244Z,14.80
2019-03-25T04:04:53.141Z,14.10
2019-03-25T04:07:21.061Z,17.07
2019-03-25T04:09:50.193Z,22.50
2019-03-25T04:12:18.071Z,16.33
2019-03-25T04:14:45.973Z,16.90
2019-03-25T04:17:13.841Z,11.43
2019-03-25T04:19:41.723Z,14.50
2019-03-25T04:22:09.631Z,12.13
2019-03-25T04:24:37.536Z,12.20
2019-03-25T04:27:05.411Z,12.23
2019-03-25T04:29:33.283Z,8.83
2019-03-25T04:32:01.135Z,12.57
2019-03-25T04:34:28.994Z,13.07
2019-03-25T04:36:56.879Z,10.07
2019-03-25T04:39:24.737Z,13.60
2019-03-25T04:41:52.651Z,10.70
2019-03-25T04:44:20.505Z,16.53
2019-03-25T04:46:48.400Z,14.80
2019-03-25T04:49:16.263Z,18.43
2019-03-25T04:51:45.016Z,10.27
2019-03-25T04:54:13.015Z,13.53
2019-03-25T04:56:40.937Z,13.40
2019-03-25T04:59:08.814Z,10.13
2019-03-25T05:01:36.729Z,11.97
2019-03-25T05:04:04.643Z,9.93
2019-03-25T05:06:32.521Z,9.30
2019-03-25T05:09:00.661Z,11.00
2019-03-25T05:11:30.763Z,11.10
2019-03-25T05:13:58.238Z,8.93
2019-03-25T05:16:26.191Z,11.63
2019-03-25T05:18:54.067Z,12.23
2019-03-25T05:21:21.977Z,15.13
2019-03-25T05:23:49.874Z,10.63
2019-03-25T05:26:17.765Z,8.53
2019-03-25T05:28:45.642Z,14.90
2019-03-25T05:31:13.525Z,10.27
2019-03-25T05:33:41.465Z,16.30
2019-03-25T05:36:09.366Z,13.37
2019-03-25T05:38:37.228Z,14.67
2019-03-25T05:41:05.116Z,14.43
2019-03-25T05:43:33.028Z,17.57
2019-03-25T05:46:00.907Z,13.00
2019-03-25T05:48:28.790Z,11.70
2019-03-25T05:50:56.701Z,18.70
2019-03-25T05:53:24.642Z,15.57
2019-03-25T05:55:59.335Z,16.43
2019-03-25T05:58:27.388Z,18.47
2019-03-25T06:00:55.325Z,17.30
2019-03-25T06:03:23.262Z,14.17
2019-03-25T06:05:51.361Z,11.03
2019-03-25T06:08:19.291Z,12.43
2019-03-25T06:10:47.176Z,14.30
2019-03-25T06:13:15.082Z,9.67
2019-03-25T06:15:42.990Z,11.70
2019-03-25T06:18:10.893Z,16.63
2019-03-25T06:20:38.798Z,9.10
2019-03-25T06:23:06.767Z,14.17
2019-03-25T06:25:34.625Z,12.37
2019-03-25T06:28:02.549Z,10.50
2019-03-25T06:30:30.443Z,12.00
2019-03-25T06:32:58.329Z,12.17
2019-03-25T06:35:26.474Z,12.73
2019-03-25T06:37:54.365Z,13.67
2019-03-25T06:40:22.264Z,13.33
2019-03-25T06:42:50.171Z,13.07
2019-03-25T06:45:18.054Z,14.70
2019-03-25T06:47:45.999Z,11.67
2019-03-25T06:50:13.949Z,13.47
2019-03-25T06:52:41.926Z,15.20
2019-03-25T06:55:09.787Z,16.73
2019-03-25T06:57:38.833Z,16.43
2019-03-25T07:00:09.111Z,12.57
2019-03-25T07:02:36.993Z,20.43
2019-03-25T07:05:05.885Z,18.03
2019-03-25T07:07:33.764Z,21.63
2019-03-25T07:10:01.640Z,17.30
2019-03-25T07:12:29.521Z,20.40
2019-03-25T07:14:57.405Z,15.67
2019-03-25T07:17:25.377Z,16.33
2019-03-25T07:19:53.260Z,22.83
2019-03-25T07:22:21.147Z,15.53
2019-03-25T07:24:49.038Z,16.23
2019-03-25T07:27:16.906Z,19.53
2019-03-25T07:29:44.808Z,19.30
2019-03-25T07:32:12.654Z,21.00
2019-03-25T07:34:41.358Z,20.07
2019-03-25T07:37:09.376Z,23.90
2019-03-25T07:39:37.287Z,18.20
2019-03-25T07:42:05.184Z,17.27
2019-03-25T07:44:33.098Z,24.97
2019-03-25T07:47:01.011Z,19.80
2019-03-25T07:49:28.900Z,22.20
2019-03-25T07:51:56.813Z,16.93
2019-03-25T07:54:24.791Z,22.47
2019-03-25T07:56:52.699Z,15.83
2019-03-25T07:59:20.621Z,16.43
2019-03-25T08:01:48.527Z,15.37
2019-03-25T08:04:16.447Z,14.83
2019-03-25T08:06:44.398Z,16.67
2019-03-25T08:09:12.429Z,20.60
2019-03-25T08:11:40.547Z,11.83
2019-03-25T08:14:08.623Z,8.63
2019-03-25T08:16:36.761Z,9.43
2019-03-25T08:19:04.850Z,9.67
2019-03-25T08:21:32.862Z,9.57
2019-03-25T08:24:00.940Z,11.00
2019-03-25T08:26:29.153Z,15.37
2019-03-25T08:28:57.200Z,9.97
2019-03-25T08:31:25.289Z,12.43
2019-03-25T08:33:53.149Z,16.13
2019-03-25T08:36:21.054Z,14.50
2019-03-25T08:38:48.946Z,11.03
2019-03-25T08:41:16.803Z,12.17
2019-03-25T08:43:44.829Z,14.50
2019-03-25T08:46:12.676Z,12.73
2019-03-25T08:48:40.623Z,12.23
2019-03-25T08:51:08.503Z,10.43
2019-03-25T08:53:36.484Z,9.23
2019-03-25T08:56:04.341Z,14.60
2019-03-25T08:58:32.314Z,15.23
2019-03-25T09:01:00.238Z,9.50
2019-03-25T09:03:28.135Z,11.27
2019-03-25T09:05:55.989Z,8.40
2019-03-25T09:08:23.903Z,11.20
2019-03-25T09:10:51.807Z,6.27
2019-03-25T09:13:19.747Z,10.07
2019-03-25T09:15:47.639Z,8.97
2019-03-25T09:18:15.571Z,11.83
2019-03-25T09:20:43.427Z,13.87
2019-03-25T09:23:11.297Z,11.47
2019-03-25T09:25:39.548Z,12.73
2019-03-25T09:28:07.441Z,14.20
2019-03-25T09:30:53.445Z,10.97
2019-03-25T09:33:21.424Z,9.97
2019-03-25T09:35:49.329Z,8.27
2019-03-25T09:38:17.197Z,10.77
2019-03-25T09:40:45.074Z,9.27
2019-03-25T09:43:12.952Z,13.30
2019-03-25T09:45:40.829Z,13.67
2019-03-25T09:48:08.767Z,13.10
2019-03-25T09:50:36.679Z,17.13
2019-03-25T09:53:04.561Z,12.37
2019-03-25T09:55:32.495Z,10.73
2019-03-25T09:58:00.363Z,8.57
2019-03-25T10:00:29.912Z,8.70
2019-03-25T10:02:57.804Z,11.57
2019-03-25T10:05:25.694Z,10.53
2019-03-25T10:07:53.548Z,10.27
2019-03-25T10:10:21.472Z,14.67
2019-03-25T10:12:49.326Z,10.20
2019-03-25T10:15:17.308Z,9.47
2019-03-25T10:17:45.162Z,6.53
2019-03-25T10:20:14.070Z,5.77
2019-03-25T10:22:41.960Z,7.07
2019-03-25T10:25:10.632Z,6.70
2019-03-25T10:27:38.508Z,4.60
2019-03-25T10:30:07.214Z,9.77
2019-03-25T10:32:35.366Z,6.70
2019-03-25T10:35:04.021Z,10.60
2019-03-25T10:37:32.174Z,6.23
2019-03-25T10:40:00.413Z,9.40
2019-03-25T10:42:28.602Z,6.07
2019-03-25T10:44:56.772Z,7.70
2019-03-25T10:47:24.921Z,5.43
2019-03-25T10:49:53.101Z,7.33
2019-03-25T10:52:21.311Z,10.13
2019-03-25T10:54:49.619Z,8.63
2019-03-25T10:57:17.833Z,6.77
2019-03-25T10:59:45.673Z,7.73
2019-03-25T11:02:13.827Z,13.10
2019-03-25T11:04:41.980Z,7.57
2019-03-25T11:07:10.178Z,8.50
2019-03-25T11:09:38.302Z,11.43
2019-03-25T11:12:06.479Z,11.13
2019-03-25T11:14:35.287Z,4.80
2019-03-25T11:17:03.592Z,8.80
2019-03-25T11:19:31.778Z,7.80
2019-03-25T11:21:59.952Z,8.77
2019-03-25T11:24:28.105Z,8.83
2019-03-25T11:26:56.288Z,6.13
2019-03-25T11:29:24.130Z,7.03
2019-03-25T11:31:52.309Z,8.73
2019-03-25T11:34:30.629Z,7.37
2019-03-25T11:36:58.883Z,5.87
2019-03-25T11:39:27.063Z,8.93
2019-03-25T11:41:55.299Z,9.03
2019-03-25T11:44:23.466Z,7.67
2019-03-25T11:46:51.615Z,9.60
2019-03-25T11:49:19.789Z,6.47
2019-03-25T11:51:47.930Z,7.53
2019-03-25T11:54:16.156Z,9.17
2019-03-25T11:56:44.320Z,8.70
2019-03-25T11:59:18.589Z,6.60
2019-03-25T12:01:42.471Z,9.97
2019-03-25T12:04:10.693Z,13.83
2019-03-25T12:06:38.880Z,9.50
2019-03-25T12:09:07.876Z,8.83
2019-03-25T12:11:36.071Z,11.87
2019-03-25T12:14:04.189Z,9.67
2019-03-25T12:16:40.847Z,9.77
2019-03-25T12:19:08.921Z,12.47
2019-03-25T12:21:37.055Z,8.47
2019-03-25T12:24:05.265Z,11.23
2019-03-25T12:26:33.385Z,11.13
2019-03-25T12:29:01.539Z,9.67
2019-03-25T12:31:29.737Z,14.57
2019-03-25T12:33:58.098Z,10.70
2019-03-25T12:36:26.383Z,15.40
2019-03-25T12:38:54.502Z,15.03
2019-03-25T12:41:22.650Z,12.23
2019-03-25T12:43:50.501Z,7.63
2019-03-25T12:46:19.001Z,11.57
2019-03-25T12:48:47.176Z,10.27
2019-03-25T12:51:15.328Z,8.90
2019-03-25T12:53:43.715Z,8.43
2019-03-25T12:56:11.853Z,5.50
2019-03-25T12:58:40.104Z,3.07
2019-03-25T13:01:08.253Z,5.80
2019-03-25T13:03:36.429Z,6.53
2019-03-25T13:06:04.590Z,5.90
2019-03-25T13:08:33.522Z,4.67
2019-03-25T13:11:01.776Z,7.27
2019-03-25T13:13:29.956Z,11.20
2019-03-25T13:15:58.080Z,7.60
2019-03-25T13:18:26.302Z,7.40
2019-03-25T13:20:54.103Z,6.87
2019-03-25T13:23:22.270Z,7.07
2019-03-25T13:25:50.197Z,3.93
2019-03-25T13:28:18.171Z,6.03
2019-03-25T13:30:46.026Z,8.83
2019-03-25T13:33:14.147Z,9.10
2019-03-25T13:35:42.314Z,10.60
2019-03-25T13:38:10.634Z,6.87
2019-03-25T13:40:50.918Z,10.87
2019-03-25T13:43:19.135Z,11.60
2019-03-25T13:45:47.281Z,9.10
2019-03-25T13:48:15.404Z,8.13
2019-03-25T13:50:43.613Z,7.37
2019-03-25T13:53:11.813Z,7.50
2019-03-25T13:55:40.006Z,9.20
2019-03-25T13:58:09.071Z,7.83
2019-03-25T14:00:39.181Z,9.47
2019-03-25T14:03:07.324Z,10.70
2019-03-25T14:05:35.187Z,8.97
2019-03-25T14:08:03.311Z,12.97
2019-03-25T14:10:31.502Z,9.83
2019-03-25T14:12:59.659Z,11.70
2019-03-25T14:15:27.805Z,9.13
2019-03-25T14:17:55.996Z,8.43
2019-03-25T14:20:24.168Z,5.50
2019-03-25T14:22:52.316Z,8.80
2019-03-25T14:25:20.491Z,10.13
2019-03-25T14:27:48.625Z,10.33
2019-03-25T14:30:16.887Z,11.07
2019-03-25T14:32:45.033Z,12.50
2019-03-25T14:35:13.203Z,7.50
2019-03-25T14:37:41.853Z,10.67
2019-03-25T14:40:10.045Z,9.40
2019-03-25T14:42:38.174Z,10.07
2019-03-25T14:45:07.612Z,8.23
2019-03-25T14:47:37.717Z,10.57
2019-03-25T14:50:06.405Z,8.23
2019-03-25T14:52:34.568Z,9.23
2019-03-25T14:55:02.986Z,8.77
2019-03-25T14:57:31.158Z,12.37
2019-03-25T14:59:59.394Z,9.97
2019-03-25T15:02:27.511Z,8.43
2019-03-25T15:04:55.668Z,10.87
2019-03-25T15:07:23.849Z,11.00
2019-03-25T15:09:52.058Z,9.53
2019-03-25T15:12:20.196Z,11.57
2019-03-25T15:14:48.357Z,8.27
2019-03-25T15:17:16.522Z,13.80
2019-03-25T15:19:44.750Z,10.80
2019-03-25T15:22:12.898Z,13.47
2019-03-25T15:24:41.044Z,16.53
2019-03-25T15:27:09.202Z,16.07
2019-03-25T15:29:37.392Z,13.77
2019-03-25T15:32:06.151Z,19.23
2019-03-25T15:34:34.294Z,12.97
2019-03-25T15:37:02.512Z,8.00
2019-03-25T15:39:30.324Z,12.40
2019-03-25T15:41:58.522Z,11.37
2019-03-25T15:44:26.685Z,13.50
2019-03-25T15:46:56.002Z,14.27
2019-03-25T15:49:24.433Z,12.17
2019-03-25T15:51:52.645Z,7.17
2019-03-25T15:54:20.813Z,9.57
2019-03-25T15:56:48.991Z,13.23
2019-03-25T15:59:17.159Z,12.67
2019-03-25T16:01:45.299Z,13.90
2019-03-25T16:04:13.430Z,11.63
2019-03-25T16:06:41.578Z,13.93
2019-03-25T16:09:09.719Z,16.27
2019-03-25T16:11:37.899Z,12.57
2019-03-25T16:14:05.701Z,12.10
2019-03-25T16:16:33.848Z,10.90
2019-03-25T16:19:02.049Z,14.47
2019-03-25T16:21:30.277Z,12.50
2019-03-25T16:23:58.405Z,12.23
2019-03-25T16:26:26.583Z,7.43
2019-03-25T16:28:54.837Z,9.07
2019-03-25T16:31:24.286Z,12.13
2019-03-25T16:33:52.464Z,12.57
2019-03-25T16:36:20.615Z,14.73
2019-03-25T16:38:50.458Z,10.63
2019-03-25T16:41:18.819Z,8.10
2019-03-25T16:43:46.938Z,10.40
2019-03-25T16:46:15.075Z,7.27
2019-03-25T16:48:43.184Z,9.60
2019-03-25T16:51:11.339Z,9.57
2019-03-25T16:53:39.496Z,11.50
2019-03-25T16:56:07.715Z,8.10
2019-03-25T16:58:35.866Z,6.10
2019-03-25T17:01:09.875Z,4.80
2019-03-25T17:03:34.126Z,7.00
2019-03-25T17:06:02.307Z,3.83
2019-03-25T17:08:30.440Z,8.93
2019-03-25T17:10:58.599Z,5.87
2019-03-25T17:13:26.740Z,5.40
2019-03-25T17:15:54.936Z,6.80
2019-03-25T17:18:23.161Z,4.20
2019-03-25T17:20:51.301Z,5.37
2019-03-25T17:23:19.511Z,5.63
2019-03-25T17:25:53.036Z,8.50
2019-03-25T17:28:17.724Z,4.47
2019-03-25T17:30:45.925Z,7.43
2019-03-25T17:33:14.119Z,6.63
2019-03-25T17:35:42.255Z,5.60
2019-03-25T17:38:10.449Z,6.30
2019-03-25T17:40:38.632Z,8.77
2019-03-25T17:43:06.793Z,10.77
2019-03-25T17:45:35.004Z,6.23
2019-03-25T17:48:03.190Z,6.30
2019-03-25T17:50:31.361Z,7.37
2019-03-25T17:52:59.634Z,8.80
2019-03-25T17:55:27.832Z,8.30
2019-03-25T17:57:55.977Z,12.87
2019-03-25T18:01:32.807Z,12.37
2019-03-25T18:04:01.028Z,8.63
2019-03-25T18:06:29.222Z,12.77
2019-03-25T18:08:57.841Z,10.33
2019-03-25T18:11:26.019Z,6.13
2019-03-25T18:13:54.205Z,7.20
2019-03-25T18:16:22.337Z,7.43
2019-03-25T18:18:50.925Z,7.17
2019-03-25T18:21:19.045Z,6.03
2019-03-25T18:23:47.303Z,5.87
2019-03-25T18:26:15.421Z,8.27
2019-03-25T18:28:43.655Z,7.30
2019-03-25T18:31:12.127Z,10.40
2019-03-25T18:33:40.303Z,7.37
2019-03-25T18:36:08.431Z,9.40
2019-03-25T18:38:36.608Z,6.53
2019-03-25T18:41:05.234Z,9.00
2019-03-25T18:43:33.737Z,7.30
2019-03-25T18:46:01.844Z,8.20
2019-03-25T18:48:30.026Z,7.17
2019-03-25T18:50:58.202Z,7.70
2019-03-25T18:53:26.389Z,10.23
2019-03-25T18:55:54.607Z,11.13
2019-03-25T18:58:22.736Z,7.03
2019-03-25T19:00:50.891Z,9.63
2019-03-25T19:03:19.050Z,9.00
2019-03-25T19:05:47.210Z,9.90
2019-03-25T19:08:15.363Z,6.27
2019-03-25T19:10:43.493Z,10.63
2019-03-25T19:13:11.649Z,10.80
2019-03-25T19:15:39.801Z,11.93
2019-03-25T19:18:08.773Z,6.97
2019-03-25T19:20:37.035Z,12.17
2019-03-25T19:23:05.168Z,8.80
2019-03-25T19:25:33.319Z,10.83
2019-03-25T19:28:01.494Z,9.07
2019-03-25T19:30:42.349Z,15.10
2019-03-25T19:33:10.796Z,14.17
2019-03-25T19:35:38.944Z,12.17
2019-03-25T19:38:07.078Z,13.77
2019-03-25T19:40:35.239Z,11.67
2019-03-25T19:43:03.522Z,11.33
2019-03-25T19:45:32.798Z,9.13
2019-03-25T19:48:00.981Z,15.53
2019-03-25T19:50:29.134Z,13.90
2019-03-25T19:52:57.292Z,10.53
2019-03-25T19:55:25.581Z,9.33
2019-03-25T19:57:53.684Z,14.07
2019-03-25T20:00:37.279Z,8.93
2019-03-25T20:03:05.753Z,9.53
2019-03-25T20:05:33.902Z,12.47
2019-03-25T20:08:06.757Z,11.07
2019-03-25T20:10:35.802Z,15.07
2019-03-25T20:13:06.480Z,15.80
2019-03-25T20:15:45.665Z,14.43
2019-03-25T20:18:04.821Z,14.80
2019-03-25T20:20:32.971Z,13.33
2019-03-25T20:23:01.101Z,11.53
2019-03-25T20:25:29.308Z,12.00
2019-03-25T20:27:57.593Z,16.93
2019-03-25T20:30:25.778Z,9.40
2019-03-25T20:32:53.990Z,8.70
2019-03-25T20:35:22.219Z,10.03
2019-03-25T20:37:50.342Z,13.53
2019-03-25T20:40:18.592Z,13.63
2019-03-25T20:42:46.816Z,12.83
2019-03-25T20:45:18.141Z,11.17
2019-03-25T20:47:45.003Z,16.33
2019-03-25T20:50:13.378Z,12.63
2019-03-25T20:52:41.575Z,12.53
2019-03-25T20:55:09.949Z,15.53
2019-03-25T20:57:40.702Z,14.60
2019-03-25T21:00:09.493Z,20.97
2019-03-25T21:02:44.836Z,18.40
2019-03-25T21:05:07.801Z,14.00
2019-03-25T21:07:35.898Z,13.50
2019-03-25T21:10:05.025Z,13.77
2019-03-25T21:12:33.222Z,16.30
2019-03-25T21:15:01.427Z,14.23
2019-03-25T21:17:29.718Z,13.70
2019-03-25T21:19:57.880Z,15.63
2019-03-25T21:22:26.052Z,17.40
2019-03-25T21:24:54.206Z,18.87
2019-03-25T21:27:22.277Z,19.03
2019-03-25T21:29:50.510Z,18.80
2019-03-25T21:32:18.635Z,16.57
2019-03-25T21:34:47.219Z,19.23
2019-03-25T21:37:15.435Z,12.90
2019-03-25T21:39:43.569Z,14.97
2019-03-25T21:42:11.788Z,14.37
2019-03-25T21:44:40.032Z,12.50
2019-03-25T21:47:08.123Z,17.73
2019-03-25T21:49:36.323Z,13.00
2019-03-25T21:52:05.531Z,16.53
2019-03-25T21:54:33.798Z,15.17
2019-03-25T21:57:02.029Z,12.17
2019-03-25T21:59:30.312Z,14.27
2019-03-25T22:01:58.554Z,11.27
2019-03-25T22:04:26.698Z,11.93
2019-03-25T22:06:54.892Z,13.13
2019-03-25T22:09:23.083Z,12.37
2019-03-25T22:11:51.258Z,14.30
2019-03-25T22:14:19.404Z,17.87
2019-03-25T22:16:47.539Z,18.07
2019-03-25T22:19:15.783Z,10.33
2019-03-25T22:21:45.648Z,15.60
2019-03-25T22:24:13.816Z,12.53
2019-03-25T22:26:42.002Z,14.53
2019-03-25T22:29:10.152Z,15.07
2019-03-25T22:31:38.312Z,15.23
2019-03-25T22:34:08.071Z,14.90
2019-03-25T22:36:36.218Z,16.80
2019-03-25T22:39:06.846Z,11.30
2019-03-25T22:41:35.319Z,12.33
2019-03-25T22:44:03.893Z,16.87
2019-03-25T22:46:32.035Z,11.17
2019-03-25T22:49:00.167Z,11.83
2019-03-25T22:51:28.373Z,9.30
2019-03-25T22:53:56.628Z,13.37
2019-03-25T22:56:24.807Z,16.67
2019-03-25T22:58:53.010Z,13.50
2019-03-25T23:01:21.202Z,12.33
2019-03-25T23:03:50.994Z,19.43
2019-03-25T23:06:19.155Z,13.90
2019-03-25T23:08:47.331Z,14.23
2019-03-25T23:11:15.480Z,9.33
2019-03-25T23:13:43.604Z,15.30
2019-03-25T23:16:11.763Z,12.63
2019-03-25T23:18:39.911Z,10.63
2019-03-25T23:21:08.097Z,15.33
2019-03-25T23:23:36.270Z,14.90
2019-03-25T23:26:04.437Z,7.43
2019-03-25T23:28:32.550Z,8.23
2019-03-25T23:31:00.727Z,9.17
2019-03-25T23:33:28.859Z,9.77
2019-03-25T23:35:57.012Z,12.07
2019-03-25T23:38:25.150Z,14.20
2019-03-25T23:40:53.326Z,6.17
2019-03-25T23:43:21.481Z,13.47
2019-03-25T23:45:56.757Z,18.87
2019-03-25T23:48:24.962Z,8.30
2019-03-25T23:50:53.104Z,11.90
2019-03-25T23:53:21.298Z,11.57
2019-03-25T23:55:49.464Z,11.33
2019-03-25T23:58:18.052Z,12.37
